Etusivu
METAR-TAF:

METAR-TAF

Lentoasemat :

Port Isabel-Cameron County Airport

Port Isabel, Texas, Yhdysvallat

Leveyspiiri: 26-09-33N, Pituuspiiri: 097-20-15W, korkeus merenpinnasta: 5 m

Tämänhetkinen sää

Tämä raportti tehtiin 54 minuuttia sitten, kello 03.53 UTC
Tuuli 6 kn idästä/kaakosta
Lämpötila 13°C
Kosteus 67%
Ilmanpaine 1029 hPa
Näkyvyys: 16.1 km
selkeää

METAR: KPIL 290353Z AUTO 11006KT 10SM CLR 13/07 A3038 RMK AO2 SLP288 T01280072

Aika: 22:47 (04:47 UTC)


TAF: puuttuu

Säähavainnot ja -ennusteet yli 4000 lentoasemalta (METAR- ja TAF-raportit).

Käytössä olevat sääasemat on merkitty karttaan keltaisilla ja punaisilla pisteillä.

Aseta hiiri pisteen päälle nähdäksesi sääaseman nimen.

Klikkaa sitten nähdäksesi säähavainnot ja -ennusteet.

Kartan vaihtaminen: klikkaa mustalla rastilla varustettuja vihreitä pisteitä, niin voit zoomata sisään; viivalla varustettua vihreää pistettä, niin voit zoomata ulos tai vihreitä nuolia, niin pääset viereisille kartoille.


METAR-TAF: